createdAt,value
2023-01-28T00:00:18.068Z,1007.73
2023-01-28T00:01:18.083Z,1007.73
2023-01-28T00:02:18.085Z,1007.72
2023-01-28T00:03:18.043Z,1007.74
2023-01-28T00:04:18.026Z,1007.75
2023-01-28T00:05:18.036Z,1007.71
2023-01-28T00:06:18.027Z,1007.68
2023-01-28T00:07:18.009Z,1007.71
2023-01-28T00:08:17.981Z,1007.70
2023-01-28T00:09:17.970Z,1007.68
2023-01-28T00:10:17.958Z,1007.70
2023-01-28T00:11:17.977Z,1007.71
2023-01-28T00:12:17.939Z,1007.76
2023-01-28T00:13:17.927Z,1007.70
2023-01-28T00:14:17.916Z,1007.68
2023-01-28T00:15:17.906Z,1007.67
2023-01-28T00:16:17.917Z,1007.67
2023-01-28T00:17:17.916Z,1007.63
2023-01-28T00:18:17.885Z,1007.60
2023-01-28T00:19:17.860Z,1007.60
2023-01-28T00:20:17.846Z,1007.59
2023-01-28T00:21:17.852Z,1007.57
2023-01-28T00:22:17.847Z,1007.62
2023-01-28T00:23:17.837Z,1007.57
2023-01-28T00:24:17.830Z,1007.59
2023-01-28T00:25:17.801Z,1007.57
2023-01-28T00:26:17.799Z,1007.59
2023-01-28T00:27:17.775Z,1007.58
2023-01-28T00:28:17.786Z,1007.60
2023-01-28T00:29:17.747Z,1007.57
2023-01-28T00:30:17.735Z,1007.67
2023-01-28T00:31:17.742Z,1007.57
2023-01-28T00:32:17.719Z,1007.54
2023-01-28T00:33:17.715Z,1007.56
2023-01-28T00:34:17.686Z,1007.57
2023-01-28T00:35:17.920Z,1007.59
2023-01-28T00:36:17.671Z,1007.57
2023-01-28T00:37:17.656Z,1007.58
2023-01-28T00:38:17.655Z,1007.51
2023-01-28T00:39:17.675Z,1007.54
2023-01-28T00:40:17.632Z,1007.56
2023-01-28T00:41:17.634Z,1007.53
2023-01-28T00:42:17.625Z,1007.53
2023-01-28T00:43:17.593Z,1007.50
2023-01-28T00:44:17.586Z,1007.55
2023-01-28T00:45:17.696Z,1007.52
2023-01-28T00:46:17.666Z,1007.54
2023-01-28T00:47:17.568Z,1007.54
2023-01-28T00:48:17.549Z,1007.59
2023-01-28T00:49:17.523Z,1007.56
2023-01-28T00:50:17.523Z,1007.55
2023-01-28T00:51:17.505Z,1007.55
2023-01-28T00:52:17.505Z,1007.57
2023-01-28T00:53:17.486Z,1007.56
2023-01-28T00:54:17.475Z,1007.58
2023-01-28T00:55:17.675Z,1007.61
2023-01-28T00:56:17.475Z,1007.60
2023-01-28T00:57:17.467Z,1007.61
2023-01-28T00:58:17.420Z,1007.59
2023-01-28T00:59:17.413Z,1007.56
2023-01-28T01:00:17.406Z,1007.60
2023-01-28T01:01:17.443Z,1007.58
2023-01-28T01:02:17.413Z,1007.61
2023-01-28T01:03:17.368Z,1007.56
2023-01-28T01:04:17.356Z,1007.61
2023-01-28T01:05:17.621Z,1007.62
2023-01-28T01:06:17.357Z,1007.62
2023-01-28T01:07:17.325Z,1007.64
2023-01-28T01:08:17.317Z,1007.68
2023-01-28T01:09:17.301Z,1007.69
2023-01-28T01:10:17.316Z,1007.74
2023-01-28T01:11:17.315Z,1007.74
2023-01-28T01:12:17.318Z,1007.75
2023-01-28T01:13:17.264Z,1007.84
2023-01-28T01:14:17.255Z,1007.79
2023-01-28T01:15:17.362Z,1007.77
2023-01-28T01:16:17.258Z,1007.77
2023-01-28T01:17:17.213Z,1007.78
2023-01-28T01:18:17.201Z,1007.76
2023-01-28T01:19:17.197Z,1007.74
2023-01-28T01:20:17.176Z,1007.74
2023-01-28T01:21:17.186Z,1007.75
2023-01-28T01:22:17.179Z,1007.77
2023-01-28T01:23:17.178Z,1007.78
2023-01-28T01:24:17.230Z,1007.75
2023-01-28T01:25:17.471Z,1007.78
2023-01-28T01:26:17.126Z,1007.79
2023-01-28T01:27:17.138Z,1007.74
2023-01-28T01:28:17.100Z,1007.78
2023-01-28T01:29:17.079Z,1007.78
2023-01-28T01:30:17.084Z,1007.75
2023-01-28T01:31:17.059Z,1007.75
2023-01-28T01:32:17.051Z,1007.77
2023-01-28T01:33:17.053Z,1007.77
2023-01-28T01:34:17.048Z,1007.81
2023-01-28T01:35:17.322Z,1007.78
2023-01-28T01:36:17.013Z,1007.77
2023-01-28T01:37:16.991Z,1007.79
2023-01-28T01:38:17.000Z,1007.77
2023-01-28T01:39:16.995Z,1007.83
2023-01-28T01:40:16.983Z,1007.90
2023-01-28T01:41:16.951Z,1007.90
2023-01-28T01:42:16.946Z,1007.91
2023-01-28T01:43:16.966Z,1007.93
2023-01-28T01:44:16.923Z,1007.98
2023-01-28T01:45:17.318Z,1007.94
2023-01-28T01:46:17.042Z,1007.95
2023-01-28T01:47:16.921Z,1007.99
2023-01-28T01:48:17.028Z,1008.00
2023-01-28T01:49:16.938Z,1007.97
2023-01-28T01:50:16.871Z,1007.95
2023-01-28T01:51:16.840Z,1007.95
2023-01-28T01:52:16.837Z,1007.98
2023-01-28T01:53:16.824Z,1007.99
2023-01-28T01:54:16.827Z,1007.98
2023-01-28T01:55:17.121Z,1008.01
2023-01-28T01:56:16.784Z,1008.01
2023-01-28T01:57:16.768Z,1007.98
2023-01-28T01:58:16.791Z,1007.97
2023-01-28T01:59:16.764Z,1007.98
2023-01-28T02:00:16.772Z,1007.96
2023-01-28T02:01:16.726Z,1007.97
2023-01-28T02:02:16.736Z,1007.95
2023-01-28T02:03:16.754Z,1007.90
2023-01-28T02:04:16.696Z,1007.89
2023-01-28T02:05:17.244Z,1007.93
2023-01-28T02:06:16.672Z,1007.92
2023-01-28T02:07:16.769Z,1007.91
2023-01-28T02:08:16.657Z,1007.89
2023-01-28T02:09:16.640Z,1007.85
2023-01-28T02:10:16.661Z,1007.88
2023-01-28T02:11:16.615Z,1007.89
2023-01-28T02:12:16.615Z,1007.90
2023-01-28T02:13:16.593Z,1007.91
2023-01-28T02:14:29.439Z,1007.94
2023-01-28T02:15:17.844Z,1007.96
2023-01-28T02:16:16.624Z,1007.97
2023-01-28T02:17:16.573Z,1008.00
2023-01-28T02:18:16.557Z,1007.99
2023-01-28T02:19:16.525Z,1007.95
2023-01-28T02:20:16.543Z,1007.92
2023-01-28T02:21:16.511Z,1007.94
2023-01-28T02:22:16.523Z,1007.94
2023-01-28T02:23:16.505Z,1007.98
2023-01-28T02:24:16.512Z,1007.98
2023-01-28T02:25:16.980Z,1007.99
2023-01-28T02:26:16.454Z,1007.95
2023-01-28T02:27:16.514Z,1007.98
2023-01-28T02:28:16.425Z,1007.96
2023-01-28T02:29:16.416Z,1007.99
2023-01-28T02:30:16.406Z,1007.97
2023-01-28T02:31:16.498Z,1008.01
2023-01-28T02:32:16.413Z,1008.00
2023-01-28T02:33:16.397Z,1008.04
2023-01-28T02:34:16.361Z,1008.02
2023-01-28T02:35:16.739Z,1008.03
2023-01-28T02:36:16.339Z,1008.02
2023-01-28T02:37:16.340Z,1008.09
2023-01-28T02:38:16.337Z,1008.09
2023-01-28T02:39:16.329Z,1008.09
2023-01-28T02:40:16.300Z,1008.13
2023-01-28T02:41:16.290Z,1008.11
2023-01-28T02:42:16.280Z,1008.13
2023-01-28T02:43:16.296Z,1008.17
2023-01-28T02:44:16.277Z,1008.16
2023-01-28T02:45:16.671Z,1008.15
2023-01-28T02:46:16.278Z,1008.18
2023-01-28T02:47:16.237Z,1008.15
2023-01-28T02:48:16.272Z,1008.18
2023-01-28T02:49:16.223Z,1008.18
2023-01-28T02:50:16.192Z,1008.24
2023-01-28T02:51:16.194Z,1008.22
2023-01-28T02:52:16.164Z,1008.24
2023-01-28T02:53:16.154Z,1008.24
2023-01-28T02:54:16.165Z,1008.27
2023-01-28T02:55:16.508Z,1008.26
2023-01-28T02:56:16.146Z,1008.26
2023-01-28T02:57:16.144Z,1008.26
2023-01-28T02:58:16.095Z,1008.24
2023-01-28T02:59:16.089Z,1008.25
2023-01-28T03:00:16.132Z,1008.25
2023-01-28T03:01:16.093Z,1008.26
2023-01-28T03:02:16.136Z,1008.27
2023-01-28T03:03:16.058Z,1008.24
2023-01-28T03:04:16.055Z,1008.24
2023-01-28T03:05:16.390Z,1008.28
2023-01-28T03:06:16.007Z,1008.28
2023-01-28T03:07:15.999Z,1008.27
2023-01-28T03:08:15.984Z,1008.34
2023-01-28T03:09:15.996Z,1008.34
2023-01-28T03:10:16.177Z,1008.32
2023-01-28T03:11:15.968Z,1008.33
2023-01-28T03:12:15.937Z,1008.38
2023-01-28T03:13:15.931Z,1008.34
2023-01-28T03:14:15.940Z,1008.35
2023-01-28T03:15:16.358Z,1008.27
2023-01-28T03:16:15.950Z,1008.27
2023-01-28T03:17:15.891Z,1008.27
2023-01-28T03:18:15.894Z,1008.27
2023-01-28T03:19:15.882Z,1008.26
2023-01-28T03:20:15.862Z,1008.22
2023-01-28T03:21:15.842Z,1008.23
2023-01-28T03:22:15.830Z,1008.28
2023-01-28T03:23:15.840Z,1008.26
2023-01-28T03:24:15.863Z,1008.30
2023-01-28T03:25:16.147Z,1008.27
2023-01-28T03:26:15.784Z,1008.26
2023-01-28T03:27:15.795Z,1008.26
2023-01-28T03:28:15.765Z,1008.30
2023-01-28T03:29:15.755Z,1008.29
2023-01-28T03:30:15.756Z,1008.26
2023-01-28T03:31:15.741Z,1008.26
2023-01-28T03:32:15.802Z,1008.24
2023-01-28T03:33:15.712Z,1008.24
2023-01-28T03:34:15.708Z,1008.24
2023-01-28T03:35:16.078Z,1008.28
2023-01-28T03:36:15.687Z,1008.27
2023-01-28T03:37:15.682Z,1008.30
2023-01-28T03:38:15.682Z,1008.32
2023-01-28T03:39:15.654Z,1008.31
2023-01-28T03:40:15.631Z,1008.36
2023-01-28T03:41:15.623Z,1008.34
2023-01-28T03:42:15.619Z,1008.40
2023-01-28T03:43:15.610Z,1008.44
2023-01-28T03:44:15.607Z,1008.39
2023-01-28T03:45:15.962Z,1008.41
2023-01-28T03:46:15.606Z,1008.40
2023-01-28T03:47:15.586Z,1008.34
2023-01-28T03:48:15.541Z,1008.36
2023-01-28T03:49:15.531Z,1008.38
2023-01-28T03:50:15.521Z,1008.37
2023-01-28T03:51:15.547Z,1008.34
2023-01-28T03:52:15.517Z,1008.34
2023-01-28T03:53:16.848Z,1008.33
2023-01-28T03:54:15.474Z,1008.33
2023-01-28T03:55:15.803Z,1008.33
2023-01-28T03:56:15.477Z,1008.31
2023-01-28T03:57:15.449Z,1008.31
2023-01-28T03:58:15.435Z,1008.31
2023-01-28T03:59:15.424Z,1008.32
2023-01-28T04:00:15.422Z,1008.33
2023-01-28T04:01:15.412Z,1008.34
2023-01-28T04:02:15.466Z,1008.37
2023-01-28T04:03:15.380Z,1008.35
2023-01-28T04:04:15.384Z,1008.35
2023-01-28T04:05:15.934Z,1008.31
2023-01-28T04:06:15.344Z,1008.33
2023-01-28T04:07:15.365Z,1008.36
2023-01-28T04:08:15.339Z,1008.39
2023-01-28T04:09:15.311Z,1008.35
2023-01-28T04:10:15.300Z,1008.40
2023-01-28T04:11:15.310Z,1008.41
2023-01-28T04:12:15.292Z,1008.39
2023-01-28T04:13:15.268Z,1008.39
2023-01-28T04:14:15.263Z,1008.38
2023-01-28T04:15:16.029Z,1008.37
2023-01-28T04:16:15.288Z,1008.32
2023-01-28T04:17:15.259Z,1008.42
2023-01-28T04:18:15.213Z,1008.33
2023-01-28T04:19:15.205Z,1008.39
2023-01-28T04:20:15.190Z,1008.42
2023-01-28T04:21:15.192Z,1008.41
2023-01-28T04:22:15.163Z,1008.48
2023-01-28T04:23:15.174Z,1008.45
2023-01-28T04:24:15.155Z,1008.40
2023-01-28T04:25:15.630Z,1008.41
2023-01-28T04:26:15.117Z,1008.39
2023-01-28T04:27:15.132Z,1008.36
2023-01-28T04:28:15.094Z,1008.39
2023-01-28T04:29:15.089Z,1008.37
2023-01-28T04:30:15.094Z,1008.37
2023-01-28T04:31:15.079Z,1008.33
2023-01-28T04:32:15.078Z,1008.36
2023-01-28T04:33:15.048Z,1008.32
2023-01-28T04:34:15.069Z,1008.32
2023-01-28T04:35:15.490Z,1008.35
2023-01-28T04:36:15.009Z,1008.30
2023-01-28T04:37:15.025Z,1008.29
2023-01-28T04:38:14.993Z,1008.35
2023-01-28T04:39:14.994Z,1008.36
2023-01-28T04:40:14.962Z,1008.35
2023-01-28T04:41:14.976Z,1008.35
2023-01-28T04:42:14.944Z,1008.39
2023-01-28T04:43:14.941Z,1008.36
2023-01-28T04:44:14.930Z,1008.32
2023-01-28T04:45:15.273Z,1008.34
2023-01-28T04:46:14.982Z,1008.37
2023-01-28T04:47:14.881Z,1008.38
2023-01-28T04:48:14.932Z,1008.40
2023-01-28T04:49:14.882Z,1008.39
2023-01-28T04:50:14.863Z,1008.40
2023-01-28T04:51:14.895Z,1008.43
2023-01-28T04:52:14.877Z,1008.40
2023-01-28T04:53:14.841Z,1008.43
2023-01-28T04:54:14.833Z,1008.46
2023-01-28T04:55:15.214Z,1008.45
2023-01-28T04:56:14.798Z,1008.43
2023-01-28T04:57:14.791Z,1008.51
2023-01-28T04:58:14.764Z,1008.47
2023-01-28T04:59:14.752Z,1008.47
2023-01-28T05:00:14.735Z,1008.49
2023-01-28T05:01:14.758Z,1008.49
2023-01-28T05:02:14.844Z,1008.49
2023-01-28T05:03:14.704Z,1008.46
2023-01-28T05:04:14.696Z,1008.49
2023-01-28T05:05:15.055Z,1008.54
2023-01-28T05:06:14.697Z,1008.53
2023-01-28T05:07:14.666Z,1008.50
2023-01-28T05:08:14.660Z,1008.49
2023-01-28T05:09:14.644Z,1008.51
2023-01-28T05:10:14.646Z,1008.51
2023-01-28T05:11:14.635Z,1008.56
2023-01-28T05:12:14.622Z,1008.52
2023-01-28T05:13:14.641Z,1008.51
2023-01-28T05:14:14.632Z,1008.57
2023-01-28T05:15:15.040Z,1008.57
2023-01-28T05:16:14.566Z,1008.56
2023-01-28T05:17:14.605Z,1008.59
2023-01-28T05:18:14.553Z,1008.60
2023-01-28T05:19:14.563Z,1008.60
2023-01-28T05:20:14.517Z,1008.63
2023-01-28T05:21:14.504Z,1008.64
2023-01-28T05:22:14.506Z,1008.58
2023-01-28T05:23:14.507Z,1008.59
2023-01-28T05:24:14.544Z,1008.54
2023-01-28T05:25:14.969Z,1008.59
2023-01-28T05:26:14.455Z,1008.55
2023-01-28T05:27:14.467Z,1008.56
2023-01-28T05:28:14.448Z,1008.57
2023-01-28T05:29:14.436Z,1008.54
2023-01-28T05:30:14.720Z,1008.63
2023-01-28T05:31:14.390Z,1008.57
2023-01-28T05:32:14.408Z,1008.60
2023-01-28T05:33:14.409Z,1008.67
2023-01-28T05:34:14.368Z,1008.69
2023-01-28T05:35:14.816Z,1008.70
2023-01-28T05:36:14.338Z,1008.67
2023-01-28T05:37:14.325Z,1008.67
2023-01-28T05:38:15.540Z,1008.67
2023-01-28T05:39:14.324Z,1008.64
2023-01-28T05:40:14.892Z,1008.62
2023-01-28T05:41:14.286Z,1008.67
2023-01-28T05:42:14.268Z,1008.67
2023-01-28T05:43:14.273Z,1008.64
2023-01-28T05:44:14.269Z,1008.67
2023-01-28T05:45:14.540Z,1008.65
2023-01-28T05:46:14.277Z,1008.72
2023-01-28T05:47:14.245Z,1008.69
2023-01-28T05:48:14.215Z,1008.74
2023-01-28T05:49:14.193Z,1008.64
2023-01-28T05:50:14.576Z,1008.63
2023-01-28T05:51:14.168Z,1008.63
2023-01-28T05:52:14.160Z,1008.63
2023-01-28T05:53:14.173Z,1008.63
2023-01-28T05:54:14.136Z,1008.61
2023-01-28T05:55:14.121Z,1008.62
2023-01-28T05:56:14.129Z,1008.64
2023-01-28T05:57:14.149Z,1008.67
2023-01-28T05:58:14.096Z,1008.67
2023-01-28T05:59:14.131Z,1008.70
2023-01-28T06:00:14.395Z,1008.68
2023-01-28T06:01:14.059Z,1008.68
2023-01-28T06:02:14.085Z,1008.70
2023-01-28T06:03:14.052Z,1008.70
2023-01-28T06:04:14.048Z,1008.69
2023-01-28T06:05:14.025Z,1008.74
2023-01-28T06:06:14.016Z,1008.76
2023-01-28T06:07:13.995Z,1008.75
2023-01-28T06:08:13.984Z,1008.81
2023-01-28T06:09:13.984Z,1008.83
2023-01-28T06:10:14.460Z,1008.81
2023-01-28T06:11:13.946Z,1008.80
2023-01-28T06:12:13.954Z,1008.86
2023-01-28T06:13:13.928Z,1008.86
2023-01-28T06:14:13.948Z,1008.83
2023-01-28T06:15:13.923Z,1008.82
2023-01-28T06:16:13.921Z,1008.85
2023-01-28T06:17:13.910Z,1008.81
2023-01-28T06:18:13.872Z,1008.85
2023-01-28T06:19:13.888Z,1008.85
2023-01-28T06:20:14.211Z,1008.87
2023-01-28T06:21:13.846Z,1008.89
2023-01-28T06:22:13.845Z,1008.90
2023-01-28T06:23:13.819Z,1008.91
2023-01-28T06:24:13.874Z,1008.90
2023-01-28T06:25:13.791Z,1008.87
2023-01-28T06:26:13.785Z,1008.86
2023-01-28T06:27:13.792Z,1008.93
2023-01-28T06:28:13.761Z,1008.94
2023-01-28T06:29:13.757Z,1008.92
2023-01-28T06:30:14.153Z,1008.94
2023-01-28T06:31:13.737Z,1008.97
2023-01-28T06:32:13.761Z,1008.96
2023-01-28T06:33:13.701Z,1009.01
2023-01-28T06:34:13.690Z,1009.04
2023-01-28T06:35:13.704Z,1009.01
2023-01-28T06:36:13.686Z,1009.03
2023-01-28T06:37:13.731Z,1009.07
2023-01-28T06:38:13.651Z,1009.00
2023-01-28T06:39:13.633Z,1009.01
2023-01-28T06:40:13.962Z,1009.04
2023-01-28T06:41:13.614Z,1008.98
2023-01-28T06:42:13.602Z,1009.02
2023-01-28T06:43:13.601Z,1009.09
2023-01-28T06:44:13.606Z,1009.04
2023-01-28T06:45:13.567Z,1009.03
2023-01-28T06:46:13.689Z,1009.00
2023-01-28T06:47:13.567Z,1009.03
2023-01-28T06:48:13.534Z,1009.02
2023-01-28T06:49:13.552Z,1009.01
2023-01-28T06:50:13.937Z,1009.03
2023-01-28T06:51:13.500Z,1009.05
2023-01-28T06:52:13.509Z,1009.02
2023-01-28T06:53:13.477Z,1009.02
2023-01-28T06:54:13.494Z,1009.03
2023-01-28T06:55:13.456Z,1009.01
2023-01-28T06:56:13.453Z,1009.02
2023-01-28T06:57:13.434Z,1009.00
2023-01-28T06:58:13.431Z,1009.03
2023-01-28T06:59:13.433Z,1009.07
2023-01-28T07:00:13.958Z,1009.02
2023-01-28T07:01:13.426Z,1009.04
2023-01-28T07:02:13.378Z,1009.07
2023-01-28T07:03:13.519Z,1009.06
2023-01-28T07:04:13.357Z,1009.08
2023-01-28T07:05:13.386Z,1009.13
2023-01-28T07:06:13.354Z,1009.12
2023-01-28T07:07:13.322Z,1009.09
2023-01-28T07:08:13.311Z,1009.11
2023-01-28T07:09:13.301Z,1009.10
2023-01-28T07:10:13.824Z,1009.13
2023-01-28T07:11:13.298Z,1009.09
2023-01-28T07:12:13.276Z,1009.07
2023-01-28T07:13:13.300Z,1009.11
2023-01-28T07:14:13.270Z,1009.09
2023-01-28T07:15:13.249Z,1009.10
2023-01-28T07:16:13.252Z,1009.11
2023-01-28T07:17:13.277Z,1009.08
2023-01-28T07:18:13.235Z,1009.08
2023-01-28T07:19:13.257Z,1009.08
2023-01-28T07:20:14.393Z,1009.07
2023-01-28T07:21:13.188Z,1009.10
2023-01-28T07:22:13.161Z,1009.15
2023-01-28T07:23:13.155Z,1009.06
2023-01-28T07:24:13.229Z,1009.09
2023-01-28T07:25:13.325Z,1009.08
2023-01-28T07:26:13.110Z,1009.11
2023-01-28T07:27:13.214Z,1009.09
2023-01-28T07:28:13.109Z,1009.09
2023-01-28T07:29:13.957Z,1009.13
2023-01-28T07:30:13.438Z,1009.11
2023-01-28T07:31:13.273Z,1009.09
2023-01-28T07:32:13.259Z,1009.09
2023-01-28T07:33:13.031Z,1009.09
2023-01-28T07:34:13.035Z,1009.08
2023-01-28T07:35:13.085Z,1009.09
2023-01-28T07:36:13.148Z,1009.07
2023-01-28T07:37:13.016Z,1009.03
2023-01-28T07:38:13.006Z,1009.07
2023-01-28T07:39:12.965Z,1009.04
2023-01-28T07:40:14.397Z,1009.03
2023-01-28T07:41:12.972Z,1009.04
2023-01-28T07:42:12.958Z,1008.97
2023-01-28T07:43:12.993Z,1009.00
2023-01-28T07:44:13.085Z,1008.94
2023-01-28T07:45:13.049Z,1009.00
2023-01-28T07:46:12.905Z,1008.99
2023-01-28T07:47:13.018Z,1009.00
2023-01-28T07:48:12.973Z,1009.03
2023-01-28T07:49:12.885Z,1009.09
2023-01-28T07:50:13.460Z,1009.05
2023-01-28T07:51:12.859Z,1009.08
2023-01-28T07:52:12.850Z,1009.10
2023-01-28T07:53:12.825Z,1009.09
2023-01-28T07:54:12.901Z,1009.13
2023-01-28T07:55:12.806Z,1009.15
2023-01-28T07:56:12.803Z,1009.15
2023-01-28T07:57:12.821Z,1009.13
2023-01-28T07:58:12.769Z,1009.10
2023-01-28T07:59:12.851Z,1009.13
2023-01-28T08:00:13.170Z,1009.09
2023-01-28T08:01:12.790Z,1009.12
2023-01-28T08:02:12.952Z,1009.13
2023-01-28T08:03:12.840Z,1009.15
2023-01-28T08:04:12.855Z,1009.12
2023-01-28T08:05:12.871Z,1009.16
2023-01-28T08:06:12.665Z,1009.15
2023-01-28T08:07:12.690Z,1009.18
2023-01-28T08:08:12.654Z,1009.19
2023-01-28T08:09:12.640Z,1009.15
2023-01-28T08:10:13.225Z,1009.16
2023-01-28T08:11:12.628Z,1009.21
2023-01-28T08:12:12.603Z,1009.17
2023-01-28T08:13:12.629Z,1009.20
2023-01-28T08:14:12.597Z,1009.16
2023-01-28T08:15:12.561Z,1009.20
2023-01-28T08:16:12.588Z,1009.19
2023-01-28T08:17:12.566Z,1009.13
2023-01-28T08:18:12.550Z,1009.15
2023-01-28T08:19:12.527Z,1009.15
2023-01-28T08:20:12.761Z,1009.17
2023-01-28T08:21:12.506Z,1009.22
2023-01-28T08:22:12.513Z,1009.29
2023-01-28T08:23:12.523Z,1009.29
2023-01-28T08:24:12.493Z,1009.35
2023-01-28T08:25:12.478Z,1009.28
2023-01-28T08:26:12.484Z,1009.30
2023-01-28T08:27:12.452Z,1009.26
2023-01-28T08:28:12.439Z,1009.30
2023-01-28T08:29:12.434Z,1009.30
2023-01-28T08:30:12.916Z,1009.33
2023-01-28T08:31:12.548Z,1009.30
2023-01-28T08:32:12.388Z,1009.35
2023-01-28T08:33:12.441Z,1009.27
2023-01-28T08:34:12.355Z,1009.30
2023-01-28T08:35:12.367Z,1009.25
2023-01-28T08:36:12.355Z,1009.27
2023-01-28T08:37:12.344Z,1009.30
2023-01-28T08:38:12.346Z,1009.32
2023-01-28T08:39:12.312Z,1009.32
2023-01-28T08:40:12.371Z,1009.31
2023-01-28T08:41:12.280Z,1009.30
2023-01-28T08:42:12.261Z,1009.30
2023-01-28T08:43:12.282Z,1009.31
2023-01-28T08:44:12.288Z,1009.29
2023-01-28T08:45:12.229Z,1009.30
2023-01-28T08:46:12.289Z,1009.35
2023-01-28T08:47:12.205Z,1009.38
2023-01-28T08:48:12.238Z,1009.39
2023-01-28T08:49:12.213Z,1009.42
2023-01-28T08:50:12.358Z,1009.43
2023-01-28T08:51:12.164Z,1009.42
2023-01-28T08:52:12.165Z,1009.37
2023-01-28T08:53:12.162Z,1009.40
2023-01-28T08:54:12.131Z,1009.43
2023-01-28T08:55:12.130Z,1009.44
2023-01-28T08:56:12.126Z,1009.43
2023-01-28T08:57:12.091Z,1009.47
2023-01-28T08:58:12.093Z,1009.52
2023-01-28T08:59:12.086Z,1009.52
2023-01-28T09:00:12.086Z,1009.55
2023-01-28T09:01:12.077Z,1009.59
2023-01-28T09:02:25.497Z,1009.64
2023-01-28T09:03:13.074Z,1009.68
2023-01-28T09:04:12.015Z,1009.69
2023-01-28T09:05:12.015Z,1009.69
2023-01-28T09:06:12.006Z,1009.67
2023-01-28T09:07:12.001Z,1009.69
2023-01-28T09:08:11.987Z,1009.76
2023-01-28T09:09:11.967Z,1009.77
2023-01-28T09:10:11.952Z,1009.78
2023-01-28T09:11:11.955Z,1009.80
2023-01-28T09:12:11.957Z,1009.80
2023-01-28T09:13:11.917Z,1009.79
2023-01-28T09:14:11.929Z,1009.78
2023-01-28T09:15:11.904Z,1009.80
2023-01-28T09:16:11.938Z,1009.86
2023-01-28T09:17:11.910Z,1009.85
2023-01-28T09:18:11.903Z,1009.86
2023-01-28T09:19:11.877Z,1009.91
2023-01-28T09:20:11.864Z,1009.86
2023-01-28T09:21:11.829Z,1009.87
2023-01-28T09:22:11.835Z,1009.88
2023-01-28T09:23:11.833Z,1009.94
2023-01-28T09:24:11.831Z,1009.91
2023-01-28T09:25:11.784Z,1009.97
2023-01-28T09:26:11.780Z,1009.98
2023-01-28T09:27:11.808Z,1009.98
2023-01-28T09:28:11.760Z,1009.99
2023-01-28T09:29:11.737Z,1010.01
2023-01-28T09:30:11.724Z,1010.03
2023-01-28T09:31:11.838Z,1010.04
2023-01-28T09:32:11.745Z,1010.09
2023-01-28T09:33:11.693Z,1010.12
2023-01-28T09:34:11.707Z,1010.20
2023-01-28T09:35:11.668Z,1010.14
2023-01-28T09:36:11.659Z,1010.14
2023-01-28T09:37:11.673Z,1010.15
2023-01-28T09:38:11.666Z,1010.11
2023-01-28T09:39:11.634Z,1010.12
2023-01-28T09:40:11.631Z,1010.12
2023-01-28T09:41:11.606Z,1010.11
2023-01-28T09:42:11.596Z,1010.10
2023-01-28T09:43:11.621Z,1010.07
2023-01-28T09:44:11.579Z,1010.15
2023-01-28T09:45:11.584Z,1010.18
2023-01-28T09:46:11.549Z,1010.17
2023-01-28T09:47:11.536Z,1010.20
2023-01-28T09:48:11.552Z,1010.19
2023-01-28T09:49:11.525Z,1010.16
2023-01-28T09:50:11.503Z,1010.16
2023-01-28T09:51:11.515Z,1010.16
2023-01-28T09:52:11.487Z,1010.13
2023-01-28T09:53:11.495Z,1010.18
2023-01-28T09:54:11.465Z,1010.19
2023-01-28T09:55:11.481Z,1010.22
2023-01-28T09:56:11.455Z,1010.24
2023-01-28T09:57:11.455Z,1010.26
2023-01-28T09:58:11.479Z,1010.22
2023-01-28T09:59:11.424Z,1010.25
2023-01-28T10:00:12.873Z,1010.26
2023-01-28T10:01:11.446Z,1010.30
2023-01-28T10:02:11.387Z,1010.29
2023-01-28T10:03:11.357Z,1010.31
2023-01-28T10:04:11.437Z,1010.30
2023-01-28T10:05:11.337Z,1010.33
2023-01-28T10:06:11.343Z,1010.33
2023-01-28T10:07:11.316Z,1010.34
2023-01-28T10:08:11.309Z,1010.33
2023-01-28T10:09:11.294Z,1010.35
2023-01-28T10:10:11.276Z,1010.37
2023-01-28T10:11:11.290Z,1010.40
2023-01-28T10:12:11.270Z,1010.39
2023-01-28T10:13:11.251Z,1010.40
2023-01-28T10:14:11.244Z,1010.39
2023-01-28T10:15:11.261Z,1010.30
2023-01-28T10:16:11.220Z,1010.28
2023-01-28T10:17:11.281Z,1010.35
2023-01-28T10:18:17.642Z,1010.37
2023-01-28T10:19:11.213Z,1010.39
2023-01-28T10:20:11.189Z,1010.38
2023-01-28T10:21:11.164Z,1010.28
2023-01-28T10:22:11.146Z,1010.26
2023-01-28T10:23:11.168Z,1010.28
2023-01-28T10:24:11.211Z,1010.22
2023-01-28T10:25:11.119Z,1010.20
2023-01-28T10:26:11.101Z,1010.17
2023-01-28T10:27:11.095Z,1010.14
2023-01-28T10:28:11.099Z,1010.13
2023-01-28T10:29:11.072Z,1010.19
2023-01-28T10:30:11.061Z,1010.15
2023-01-28T10:31:11.166Z,1010.13
2023-01-28T10:32:11.059Z,1010.16
2023-01-28T10:33:11.025Z,1010.07
2023-01-28T10:34:11.037Z,1010.11
2023-01-28T10:35:11.023Z,1010.09
2023-01-28T10:36:10.999Z,1010.15
2023-01-28T10:37:10.990Z,1010.12
2023-01-28T10:38:10.968Z,1010.14
2023-01-28T10:39:10.988Z,1010.11
2023-01-28T10:40:10.965Z,1010.13
2023-01-28T10:41:10.935Z,1010.10
2023-01-28T10:42:10.936Z,1010.14
2023-01-28T10:43:10.915Z,1010.07
2023-01-28T10:44:10.950Z,1010.05
2023-01-28T10:45:10.891Z,1010.08
2023-01-28T10:46:10.933Z,1010.12
2023-01-28T10:47:10.889Z,1010.14
2023-01-28T10:48:10.876Z,1010.10
2023-01-28T10:49:10.846Z,1010.10
2023-01-28T10:50:10.833Z,1010.09
2023-01-28T10:51:10.897Z,1010.09
2023-01-28T10:52:10.819Z,1010.07
2023-01-28T10:53:10.823Z,1010.06
2023-01-28T10:54:10.817Z,1010.02
2023-01-28T10:55:10.781Z,1010.06
2023-01-28T10:56:10.789Z,1010.07
2023-01-28T10:57:10.759Z,1010.12
2023-01-28T10:58:10.750Z,1010.13
2023-01-28T10:59:10.745Z,1010.16
2023-01-28T11:00:10.723Z,1010.16
2023-01-28T11:01:10.782Z,1010.15
2023-01-28T11:02:10.719Z,1010.18
2023-01-28T11:03:10.740Z,1010.14
2023-01-28T11:04:10.679Z,1010.15
2023-01-28T11:05:10.674Z,1010.12
2023-01-28T11:06:10.656Z,1010.14
2023-01-28T11:07:10.648Z,1010.15
2023-01-28T11:08:10.637Z,1010.12
2023-01-28T11:09:10.647Z,1010.16
2023-01-28T11:10:10.631Z,1010.13
2023-01-28T11:11:10.618Z,1010.09
2023-01-28T11:12:10.589Z,1010.13
2023-01-28T11:13:10.578Z,1010.13
2023-01-28T11:14:10.584Z,1010.04
2023-01-28T11:15:10.569Z,1010.06
2023-01-28T11:16:10.565Z,1010.05
2023-01-28T11:17:10.608Z,1010.04
2023-01-28T11:18:12.268Z,1010.05
2023-01-28T11:19:10.529Z,1010.02
2023-01-28T11:20:10.508Z,1010.01
2023-01-28T11:21:10.529Z,1010.04
2023-01-28T11:22:10.484Z,1010.06
2023-01-28T11:23:10.468Z,1010.01
2023-01-28T11:24:10.564Z,1009.99
2023-01-28T11:25:10.452Z,1009.96
2023-01-28T11:26:10.471Z,1009.90
2023-01-28T11:27:10.430Z,1009.91
2023-01-28T11:28:10.420Z,1009.93
2023-01-28T11:29:10.421Z,1009.89
2023-01-28T11:30:10.388Z,1009.90
2023-01-28T11:31:10.476Z,1009.93
2023-01-28T11:32:10.369Z,1009.90
2023-01-28T11:33:10.375Z,1009.93
2023-01-28T11:34:10.344Z,1009.84
2023-01-28T11:35:10.370Z,1009.78
2023-01-28T11:36:10.324Z,1009.79
2023-01-28T11:37:10.325Z,1009.79
2023-01-28T11:38:10.297Z,1009.76
2023-01-28T11:39:10.304Z,1009.75
2023-01-28T11:40:10.279Z,1009.70
2023-01-28T11:41:10.272Z,1009.68
2023-01-28T11:42:10.252Z,1009.73
2023-01-28T11:43:10.245Z,1009.71
2023-01-28T11:44:10.251Z,1009.70
2023-01-28T11:45:10.222Z,1009.71
2023-01-28T11:46:10.253Z,1009.72
2023-01-28T11:47:10.198Z,1009.72
2023-01-28T11:48:10.214Z,1009.75
2023-01-28T11:49:10.179Z,1009.79
2023-01-28T11:50:10.171Z,1009.71
2023-01-28T11:51:10.184Z,1009.73
2023-01-28T11:52:10.162Z,1009.69
2023-01-28T11:53:10.191Z,1009.66
2023-01-28T11:54:10.127Z,1009.65
2023-01-28T11:55:10.116Z,1009.73
2023-01-28T11:56:10.118Z,1009.74
2023-01-28T11:57:10.097Z,1009.74
2023-01-28T11:58:10.146Z,1009.72
2023-01-28T11:59:10.081Z,1009.78
2023-01-28T12:00:11.057Z,1009.82
2023-01-28T12:01:10.046Z,1009.79
2023-01-28T12:02:10.120Z,1009.81
2023-01-28T12:03:10.021Z,1009.81
2023-01-28T12:04:10.094Z,1009.77
2023-01-28T12:05:10.000Z,1009.83